Time;durP1;ratioP1;P1;durP2;ratioP2;P2;SDS_P1;SDS_P2;PMS_P1;PMS_P2;Temp;Humidity;BMP_temperature;BMP_pressure;BME280_temperature;BME280_humidity;BME280_pressure;Samples;Min_cycle;Max_cycle;Signal;HPM_P1;HPM_P2
2021/11/08 00:00:12;;;;;;;9.00;2.43;;;;;;;-145.18;100.00;60484.78;4977686;28;20502;-69
2021/11/08 00:02:38;;;;;;;9.70;1.27;;;;;;;-145.18;100.00;60484.78;4978604;28;20108;-68
2021/11/08 00:05:06;;;;;;;11.27;2.33;;;;;;;-145.18;100.00;60484.78;4977712;28;20094;-68
2021/11/08 00:07:31;;;;;;;11.00;1.77;;;;;;;-145.18;100.00;60484.78;4979726;28;20038;-68
2021/11/08 00:09:57;;;;;;;5.60;2.10;;;;;;;-145.18;100.00;60484.78;4979164;28;20558;-68
2021/11/08 00:12:23;;;;;;;9.73;1.90;;;;;;;-145.18;100.00;60484.78;4979433;28;20041;-68
2021/11/08 00:14:53;;;;;;;11.23;2.07;;;;;;;-145.18;100.00;60484.78;4979081;28;20500;-68
2021/11/08 00:20:06;;;;;;;11.80;1.97;;;;;;;-145.18;100.00;60484.78;4981542;28;20382;-68
2021/11/08 00:22:35;;;;;;;;;;;;;;;-145.18;100.00;60484.78;4978863;28;20091;-68
2021/11/08 00:25:02;;;;;;;10.43;2.07;;;;;;;-145.18;100.00;60484.78;4978594;28;19918;-68
2021/11/08 00:27:28;;;;;;;9.17;2.17;;;;;;;-145.18;100.00;60484.78;4979234;28;20041;-68
2021/11/08 00:29:53;;;;;;;9.13;1.40;;;;;;;-145.18;100.00;60484.78;4978391;28;20046;-68
2021/11/08 00:32:19;;;;;;;7.73;1.60;;;;;;;-145.18;100.00;60484.78;4978964;28;20114;-68
2021/11/08 00:34:44;;;;;;;10.77;2.60;;;;;;;-145.18;100.00;60484.78;4982109;28;20582;-68
2021/11/08 00:37:10;;;;;;;11.13;1.87;;;;;;;-145.18;100.00;60484.78;5039143;28;20040;-68
2021/11/08 00:39:38;;;;;;;12.17;1.40;;;;;;;-145.18;100.00;60484.78;5061794;28;20274;-69
2021/11/08 00:42:04;;;;;;;9.30;2.07;;;;;;;-145.18;100.00;60484.78;5060507;28;20048;-69
2021/11/08 00:44:30;;;;;;;8.13;2.00;;;;;;;-145.18;100.00;60484.78;5056578;28;20361;-69
2021/11/08 00:46:56;;;;;;;9.80;1.90;;;;;;;-145.18;100.00;60484.78;5061176;28;20043;-69
2021/11/08 00:49:24;;;;;;;10.43;2.20;;;;;;;-145.18;100.00;60484.78;5061138;28;20464;-68
2021/11/08 00:51:49;;;;;;;9.77;2.53;;;;;;;-145.18;100.00;60484.78;5060795;28;20024;-69
2021/11/08 00:54:16;;;;;;;11.93;1.50;;;;;;;-145.18;100.00;60484.78;5057544;28;20537;-69
2021/11/08 00:56:44;;;;;;;11.33;1.23;;;;;;;-145.18;100.00;60484.78;5060633;28;20184;-68
2021/11/08 00:59:13;;;;;;;7.03;1.47;;;;;;;-145.18;100.00;60484.78;5060785;28;20037;-68
2021/11/08 01:01:39;;;;;;;8.33;1.10;;;;;;;-145.18;100.00;60484.78;5058180;28;20076;-69
2021/11/08 01:04:06;;;;;;;11.17;1.73;;;;;;;-145.18;100.00;60484.78;5060174;28;20039;-69
2021/11/08 01:06:32;;;;;;;11.63;1.50;;;;;;;-145.18;100.00;60484.78;5061050;28;20032;-69
2021/11/08 01:08:57;;;;;;;8.57;1.63;;;;;;;-145.18;100.00;60484.78;5060323;28;20032;-68
2021/11/08 01:11:22;;;;;;;8.53;1.23;;;;;;;-145.18;100.00;60484.78;5060883;28;20103;-68
2021/11/08 01:13:48;;;;;;;7.00;1.43;;;;;;;-145.18;100.00;60484.78;5060343;28;20245;-69
2021/11/08 01:16:13;;;;;;;7.63;1.40;;;;;;;-145.18;100.00;60484.78;5060886;28;20508;-69
2021/11/08 01:18:39;;;;;;;12.07;1.80;;;;;;;-145.18;100.00;60484.78;5059430;28;20528;-69
2021/11/08 01:21:08;;;;;;;11.93;1.70;;;;;;;-145.18;100.00;60484.78;5060134;28;20028;-68
2021/11/08 01:23:34;;;;;;;12.93;2.23;;;;;;;-145.18;100.00;60484.78;5059959;28;20491;-69
2021/11/08 01:26:12;;;;;;;9.70;1.67;;;;;;;-145.18;100.00;60484.78;5060805;28;20054;-68
2021/11/08 01:28:41;;;;;;;8.50;1.63;;;;;;;-145.18;100.00;60484.78;5053004;28;20086;-69
2021/11/08 01:31:10;;;;;;;9.77;2.00;;;;;;;-145.18;100.00;60484.78;5060056;28;20032;-69
2021/11/08 01:33:38;;;;;;;9.23;1.73;;;;;;;-145.18;100.00;60484.78;5059735;28;20024;-68
2021/11/08 01:38:38;;;;;;;5.63;1.53;;;;;;;-145.18;100.00;60484.78;5058033;28;20028;-69
2021/11/08 01:41:04;;;;;;;11.13;2.20;;;;;;;-145.18;100.00;60484.78;5059787;28;20032;-69
2021/11/08 01:43:30;;;;;;;7.23;1.70;;;;;;;-145.18;100.00;60484.78;5059986;28;20485;-68
2021/11/08 01:45:56;;;;;;;4.40;1.33;;;;;;;-145.18;100.00;60484.78;5060547;28;20296;-69
2021/11/08 01:48:22;;;;;;;10.67;1.80;;;;;;;-145.18;100.00;60484.78;5059829;28;20036;-68
2021/11/08 01:50:49;;;;;;;7.07;1.37;;;;;;;-145.18;100.00;60484.78;5059599;28;20025;-69
2021/11/08 01:53:15;;;;;;;12.93;2.90;;;;;;;-145.18;100.00;60484.78;5060051;28;20189;-69
2021/11/08 01:55:40;;;;;;;17.37;2.63;;;;;;;-145.18;100.00;60484.78;5059891;28;20036;-68
2021/11/08 01:58:06;;;;;;;3.87;1.70;;;;;;;-145.18;100.00;60484.78;5059911;28;20036;-68
2021/11/08 02:00:32;;;;;;;4.27;1.53;;;;;;;-145.18;100.00;60484.78;5058314;28;20112;-70
2021/11/08 02:02:58;;;;;;;8.63;1.60;;;;;;;-145.18;100.00;60484.78;5057463;28;20514;-70
2021/11/08 02:05:23;;;;;;;13.37;1.37;;;;;;;-145.18;100.00;60484.78;5081888;22;20093;-70
2021/11/08 02:07:49;;;;;;;7.80;1.57;;;;;;;-145.18;100.00;60484.78;5069353;28;20488;-71
2021/11/08 02:10:17;;;;;;;5.60;1.03;;;;;;;-145.18;100.00;60484.78;5077597;28;20042;-71
2021/11/08 02:12:44;;;;;;;8.77;1.60;;;;;;;-145.18;100.00;60484.78;5079022;28;20312;-71
2021/11/08 02:15:18;;;;;;;8.30;1.50;;;;;;;-145.18;100.00;60484.78;5074307;28;20028;-71
2021/11/08 02:17:47;;;;;;;5.37;1.17;;;;;;;-145.18;100.00;60484.78;5078483;28;20506;-71
2021/11/08 02:20:20;;;;;;;8.07;1.93;;;;;;;-145.18;100.00;60484.78;5078145;28;20028;-71
2021/11/08 02:22:50;;;;;;;8.40;1.73;;;;;;;-145.18;100.00;60484.78;5075557;28;20036;-71
2021/11/08 02:25:20;;;;;;;6.20;1.50;;;;;;;-145.18;100.00;60484.78;5078470;28;20173;-71
2021/11/08 02:27:47;;;;;;;9.27;1.70;;;;;;;-145.18;100.00;60484.78;5077425;28;20039;-71
2021/11/08 02:30:15;;;;;;;14.10;2.20;;;;;;;-145.18;100.00;60484.78;5077730;28;20305;-71
2021/11/08 02:32:41;;;;;;;7.50;1.93;;;;;;;-145.18;100.00;60484.78;5076068;28;20028;-71
2021/11/08 02:35:09;;;;;;;6.73;1.30;;;;;;;-145.18;100.00;60484.78;5070619;28;20035;-71
2021/11/08 02:37:35;;;;;;;12.93;1.63;;;;;;;-145.18;100.00;60484.78;5075782;28;20334;-71
2021/11/08 02:40:02;;;;;;;7.57;1.73;;;;;;;-145.18;100.00;60484.78;5079212;28;20061;-70
2021/11/08 02:42:28;;;;;;;10.40;1.50;;;;;;;-145.18;100.00;60484.78;5077651;28;20183;-70
2021/11/08 02:44:57;;;;;;;7.97;1.33;;;;;;;-145.18;100.00;60484.78;5059775;28;20031;-70
2021/11/08 02:47:23;;;;;;;8.00;1.43;;;;;;;-145.18;100.00;60484.78;5078058;28;20054;-70
2021/11/08 02:49:51;;;;;;;6.70;1.97;;;;;;;-145.18;100.00;60484.78;5078936;28;20210;-70
2021/11/08 02:52:24;;;;;;;9.33;1.47;;;;;;;-145.18;100.00;60484.78;5075519;28;20439;-70
2021/11/08 02:54:51;;;;;;;;;;;;;;;-145.18;100.00;60484.78;5073466;28;20028;-70
2021/11/08 02:57:23;;;;;;;6.67;1.50;;;;;;;-145.18;100.00;60484.78;5071080;28;20496;-70
2021/11/08 02:59:50;;;;;;;8.43;1.65;;;;;;;-145.18;100.00;60484.78;5076622;28;20047;-70
2021/11/08 03:02:17;;;;;;;10.67;2.27;;;;;;;-145.18;100.00;60484.78;5070828;28;20050;-70
2021/11/08 03:04:45;;;;;;;6.43;1.43;;;;;;;-145.18;100.00;60484.78;5078116;28;20040;-70
2021/11/08 03:07:11;;;;;;;7.93;2.27;;;;;;;-145.18;100.00;60484.78;5076925;28;20435;-70
2021/11/08 03:09:43;;;;;;;9.43;2.47;;;;;;;-145.18;100.00;60484.78;5076876;28;20533;-70
2021/11/08 03:12:11;;;;;;;5.67;1.53;;;;;;;-145.18;100.00;60484.78;5073312;28;20467;-70
2021/11/08 03:17:47;;;;;;;12.87;1.30;;;;;;;-145.18;100.00;60484.78;5009136;28;20049;-70
2021/11/08 03:20:18;;;;;;;9.60;1.57;;;;;;;-145.18;100.00;60484.78;5012996;28;20437;-70
2021/11/08 03:22:52;;;;;;;10.53;2.07;;;;;;;-145.18;100.00;60484.78;5008440;28;20033;-69
2021/11/08 03:25:36;;;;;;;6.17;1.10;;;;;;;-145.18;100.00;60484.78;5005505;28;20108;-70
2021/11/08 03:28:05;;;;;;;10.57;1.83;;;;;;;-145.18;100.00;60484.78;5017506;28;20065;-70
2021/11/08 03:30:40;;;;;;;8.57;1.37;;;;;;;-145.18;100.00;60484.78;5008962;28;20033;-70
2021/11/08 03:33:08;;;;;;;8.07;1.30;;;;;;;-145.18;100.00;60484.78;5016763;28;20182;-68
2021/11/08 03:35:34;;;;;;;6.93;1.53;;;;;;;-145.18;100.00;60484.78;5000162;28;20034;-66
2021/11/08 03:38:01;;;;;;;13.63;1.60;;;;;;;-145.18;100.00;60484.78;5008775;28;20620;-66
2021/11/08 03:40:32;;;;;;;7.13;1.10;;;;;;;-145.18;100.00;60484.78;5010610;28;20029;-66
2021/11/08 03:42:58;;;;;;;6.00;1.80;;;;;;;-145.18;100.00;60484.78;5003212;28;20552;-66
2021/11/08 03:45:26;;;;;;;3.80;1.30;;;;;;;-145.18;100.00;60484.78;5027354;28;20017;-66
2021/11/08 03:47:54;;;;;;;6.77;1.50;;;;;;;-145.18;100.00;60484.78;5019651;28;20037;-66
2021/11/08 03:50:21;;;;;;;8.17;1.70;;;;;;;-145.18;100.00;60484.78;5021541;28;20452;-69
2021/11/08 03:52:47;;;;;;;11.23;1.63;;;;;;;-145.18;100.00;60484.78;5009160;28;20163;-69
2021/11/08 03:55:13;;;;;;;9.57;1.70;;;;;;;-145.18;100.00;60484.78;5067290;28;20427;-69
2021/11/08 03:57:39;;;;;;;8.03;2.10;;;;;;;-145.18;100.00;60484.78;5072986;28;20254;-69
2021/11/08 04:00:07;;;;;;;9.50;1.73;;;;;;;-145.18;100.00;60484.78;5076806;28;20033;-68
2021/11/08 04:02:32;;;;;;;9.73;2.30;;;;;;;-145.18;100.00;60484.78;5075053;28;20152;-68
2021/11/08 04:05:01;;;;;;;11.40;1.33;;;;;;;-145.18;100.00;60484.78;5071647;28;20580;-68
2021/11/08 04:07:26;;;;;;;10.20;1.80;;;;;;;-145.18;100.00;60484.78;5081081;28;20503;-68
2021/11/08 04:09:52;;;;;;;17.93;2.70;;;;;;;-145.18;100.00;60484.78;5078253;28;20030;-68
2021/11/08 04:12:19;;;;;;;6.37;1.30;;;;;;;-145.18;100.00;60484.78;5081415;28;20696;-68
2021/11/08 04:14:45;;;;;;;8.20;1.60;;;;;;;-145.18;100.00;60484.78;5080117;28;20012;-68
2021/11/08 04:17:11;;;;;;;6.70;2.40;;;;;;;-145.18;100.00;60484.78;5078643;28;20031;-68
2021/11/08 04:19:37;;;;;;;9.87;2.40;;;;;;;-145.18;100.00;60484.78;5070538;28;20024;-68
2021/11/08 04:22:04;;;;;;;7.63;1.60;;;;;;;-145.18;100.00;60484.78;5080289;28;20498;-68
2021/11/08 04:24:30;;;;;;;10.90;1.80;;;;;;;-145.18;100.00;60484.78;5073202;28;20384;-68
2021/11/08 04:26:55;;;;;;;9.27;1.80;;;;;;;-145.18;100.00;60484.78;5070126;28;20039;-68
2021/11/08 04:29:23;;;;;;;9.50;1.73;;;;;;;-145.18;100.00;60484.78;5080716;28;20120;-68
2021/11/08 04:31:49;;;;;;;8.90;1.70;;;;;;;-145.18;100.00;60484.78;5080221;28;20032;-69
2021/11/08 04:37:04;;;;;;;10.67;1.63;;;;;;;-145.18;100.00;60484.78;5079705;28;20311;-68
2021/11/08 04:41:59;;;;;;;8.63;1.53;;;;;;;-145.18;100.00;60484.78;5075694;28;20031;-69
2021/11/08 04:47:08;;;;;;;9.07;2.17;;;;;;;-145.18;100.00;60484.78;5078514;28;19930;-68
2021/11/08 04:57:35;;;;;;;9.20;1.70;;;;;;;-145.18;100.00;60484.78;5072166;28;20028;-68
2021/11/08 05:24:40;;;;;;;8.17;1.40;;;;;;;-145.18;100.00;60484.78;5072986;28;20506;-71
2021/11/08 05:32:49;;;;;;;10.40;1.80;;;;;;;-145.18;100.00;60484.78;4991147;28;20518;-73
2021/11/08 05:35:16;;;;;;;14.37;2.50;;;;;;;-145.18;100.00;60484.78;4995379;28;20490;-70
2021/11/08 05:37:43;;;;;;;10.00;1.50;;;;;;;-145.18;100.00;60484.78;4986426;28;20053;-71
2021/11/08 05:40:13;;;;;;;9.70;3.30;;;;;;;-145.18;100.00;60484.78;4990424;28;20025;-71
2021/11/08 05:42:40;;;;;;;11.80;2.20;;;;;;;-145.18;100.00;60484.78;4995228;28;20108;-71
2021/11/08 05:45:09;;;;;;;9.97;1.80;;;;;;;-145.18;100.00;60484.78;4996201;28;20109;-71
2021/11/08 05:47:37;;;;;;;13.67;3.00;;;;;;;-145.18;100.00;60484.78;4997001;28;20672;-72
2021/11/08 05:50:05;;;;;;;7.63;1.60;;;;;;;-145.18;100.00;60484.78;4988838;28;20538;-71
2021/11/08 05:52:30;;;;;;;19.97;2.27;;;;;;;-145.18;100.00;60484.78;4985745;28;20034;-71
2021/11/08 05:54:56;;;;;;;12.00;2.00;;;;;;;-145.18;100.00;60484.78;4982120;28;20036;-71
2021/11/08 06:49:23;;;;;;;9.90;2.00;;;;;;;-145.18;100.00;60484.78;5067981;28;20213;-71
2021/11/08 06:51:51;;;;;;;12.70;2.57;;;;;;;-145.18;100.00;60484.78;5065070;28;20054;-70
2021/11/08 06:54:18;;;;;;;11.37;2.13;;;;;;;-145.18;100.00;60484.78;5077423;28;20086;-70
2021/11/08 06:56:53;;;;;;;14.57;2.63;;;;;;;-145.18;100.00;60484.78;5076011;28;20024;-70
2021/11/08 06:59:19;;;;;;;14.17;3.00;;;;;;;-145.18;100.00;60484.78;5075072;28;20028;-70
2021/11/08 07:01:48;;;;;;;13.30;2.50;;;;;;;-145.18;100.00;60484.78;5073806;28;20470;-67
2021/11/08 07:04:15;;;;;;;12.00;2.10;;;;;;;-145.18;100.00;60484.78;5073847;28;20137;-67
2021/11/08 07:06:40;;;;;;;16.43;2.47;;;;;;;-145.18;100.00;60484.78;5076169;28;20032;-67
2021/11/08 07:09:06;;;;;;;11.43;2.20;;;;;;;-145.18;100.00;60484.78;5076219;28;20038;-68
2021/11/08 07:11:32;;;;;;;11.27;1.90;;;;;;;-145.18;100.00;60484.78;5066497;28;20028;-68
2021/11/08 07:13:58;;;;;;;12.23;2.43;;;;;;;-145.18;100.00;60484.78;5069868;28;20443;-67
2021/11/08 07:16:33;;;;;;;8.43;2.67;;;;;;;-145.18;100.00;60484.78;5080765;28;20077;-70
2021/11/08 07:18:58;;;;;;;14.60;2.03;;;;;;;-145.18;100.00;60484.78;5066709;28;20488;-66
2021/11/08 07:21:24;;;;;;;9.70;2.37;;;;;;;-145.18;100.00;60484.78;5071392;28;20108;-66
2021/11/08 07:23:49;;;;;;;10.43;2.63;;;;;;;-145.18;100.00;60484.78;5066781;28;20024;-66
2021/11/08 07:26:14;;;;;;;9.87;2.23;;;;;;;-145.18;100.00;60484.78;5078489;28;20046;-66
2021/11/08 07:28:40;;;;;;;9.57;2.43;;;;;;;-145.18;100.00;60484.78;5077637;28;20027;-66
2021/11/08 07:31:08;;;;;;;9.37;1.77;;;;;;;-145.18;100.00;60484.78;5078297;28;20028;-66
2021/11/08 07:33:34;;;;;;;7.93;1.80;;;;;;;-145.18;100.00;60484.78;5078159;28;20476;-66
2021/11/08 07:36:00;;;;;;;17.10;2.23;;;;;;;-145.18;100.00;60484.78;5078514;28;20034;-66
2021/11/08 07:38:25;;;;;;;12.33;2.70;;;;;;;-145.18;100.00;60484.78;5078520;28;20028;-66
2021/11/08 07:40:51;;;;;;;9.33;3.23;;;;;;;-145.18;100.00;60484.78;5078053;28;20099;-66
2021/11/08 07:43:17;;;;;;;8.07;2.03;;;;;;;-145.18;100.00;60484.78;5078261;28;20034;-67
2021/11/08 07:45:42;;;;;;;9.17;1.53;;;;;;;-145.18;100.00;60484.78;5078380;28;20375;-68
2021/11/08 07:48:08;;;;;;;12.03;2.50;;;;;;;-145.18;100.00;60484.78;5078364;28;20030;-68
2021/11/08 07:50:34;;;;;;;12.87;2.70;;;;;;;-145.18;100.00;60484.78;5078093;28;20028;-68
2021/11/08 07:53:00;;;;;;;7.73;2.47;;;;;;;-145.18;100.00;60484.78;5078218;28;20054;-68
2021/11/08 07:55:25;;;;;;;8.70;1.90;;;;;;;-145.18;100.00;60484.78;5078500;28;20270;-68
2021/11/08 07:57:51;;;;;;;6.07;1.60;;;;;;;-145.18;100.00;60484.78;5079249;28;20099;-68
2021/11/08 08:00:16;;;;;;;6.20;1.83;;;;;;;-145.18;100.00;60484.78;5080287;28;20035;-68
2021/11/08 08:02:43;;;;;;;6.23;1.53;;;;;;;-145.18;100.00;60484.78;5081213;28;20027;-68
2021/11/08 08:05:09;;;;;;;10.80;2.30;;;;;;;-145.18;100.00;60484.78;5081815;28;20462;-68
2021/11/08 08:07:34;;;;;;;5.87;1.73;;;;;;;-145.18;100.00;60484.78;5082146;28;20510;-68
2021/11/08 08:10:00;;;;;;;10.97;2.47;;;;;;;-145.18;100.00;60484.78;5068891;28;20025;-68
2021/11/08 08:12:25;;;;;;;7.10;2.10;;;;;;;-145.18;100.00;60484.78;5081792;28;20353;-68
2021/11/08 08:14:51;;;;;;;9.07;1.47;;;;;;;-145.18;100.00;60484.78;5078443;28;20012;-68
2021/11/08 08:17:17;;;;;;;7.70;1.90;;;;;;;-145.18;100.00;60484.78;5081675;28;20104;-68
2021/11/08 08:19:42;;;;;;;10.80;1.90;;;;;;;-145.18;100.00;60484.78;5081730;28;20103;-68
2021/11/08 08:22:08;;;;;;;8.90;1.50;;;;;;;-145.18;100.00;60484.78;5081534;28;20028;-68
2021/11/08 08:24:34;;;;;;;12.77;1.83;;;;;;;-145.18;100.00;60484.78;5074635;28;20169;-68
2021/11/08 08:27:04;;;;;;;8.03;1.63;;;;;;;-145.18;100.00;60484.78;5081300;28;20430;-67
2021/11/08 08:29:31;;;;;;;9.77;1.90;;;;;;;-145.18;100.00;60484.78;5081456;28;20040;-68
2021/11/08 08:31:56;;;;;;;9.17;1.60;;;;;;;-145.18;100.00;60484.78;5081702;28;20020;-68
2021/11/08 08:34:22;;;;;;;9.17;2.07;;;;;;;-145.18;100.00;60484.78;5081548;28;20102;-68
2021/11/08 08:36:48;;;;;;;7.07;1.97;;;;;;;-145.18;100.00;60484.78;5081325;28;20172;-68
2021/11/08 08:39:15;;;;;;;10.60;1.83;;;;;;;-145.18;100.00;60484.78;5081363;28;20503;-68
2021/11/08 08:41:42;;;;;;;10.20;2.83;;;;;;;-145.18;100.00;60484.78;5080807;28;20280;-68
2021/11/08 08:44:13;;;;;;;10.93;1.87;;;;;;;-145.18;100.00;60484.78;5081140;28;20368;-68
2021/11/08 08:46:40;;;;;;;8.77;1.70;;;;;;;-145.18;100.00;60484.78;5081511;28;20024;-68
2021/11/08 08:49:06;;;;;;;5.83;1.70;;;;;;;-145.18;100.00;60484.78;5081174;28;20024;-68
2021/11/08 08:51:31;;;;;;;5.23;1.67;;;;;;;-145.18;100.00;60484.78;5080922;28;20032;-66
2021/11/08 08:53:57;;;;;;;12.90;2.53;;;;;;;-145.18;100.00;60484.78;5080767;28;20189;-66
2021/11/08 08:56:23;;;;;;;10.47;1.70;;;;;;;-145.18;100.00;60484.78;5080430;28;20023;-67
2021/11/08 08:58:51;;;;;;;11.13;1.90;;;;;;;-145.18;100.00;60484.78;5080970;28;20152;-66
2021/11/08 09:01:17;;;;;;;13.67;1.73;;;;;;;-145.18;100.00;60484.78;5080555;28;20111;-67
2021/11/08 09:03:42;;;;;;;8.37;1.43;;;;;;;-145.18;100.00;60484.78;5080685;28;20201;-67
2021/11/08 09:06:08;;;;;;;5.80;1.57;;;;;;;-145.18;100.00;60484.78;5080642;28;20065;-67
2021/11/08 09:08:35;;;;;;;8.77;1.60;;;;;;;-145.18;100.00;60484.78;5080771;28;20031;-66
2021/11/08 09:11:01;;;;;;;5.40;1.47;;;;;;;-145.18;100.00;60484.78;5066169;28;20115;-66
2021/11/08 09:13:27;;;;;;;7.90;1.87;;;;;;;-145.18;100.00;60484.78;5080681;28;20095;-66
2021/11/08 09:15:52;;;;;;;11.57;2.00;;;;;;;-145.18;100.00;60484.78;5080590;28;20494;-67
2021/11/08 09:18:18;;;;;;;7.47;1.63;;;;;;;-145.18;100.00;60484.78;5080232;28;20204;-67
2021/11/08 09:20:45;;;;;;;7.10;1.50;;;;;;;-145.18;100.00;60484.78;5080589;28;20086;-66
2021/11/08 09:23:12;;;;;;;7.67;1.73;;;;;;;-145.18;100.00;60484.78;5075934;28;20058;-67
2021/11/08 09:25:38;;;;;;;4.70;1.50;;;;;;;-145.18;100.00;60484.78;5071340;28;20105;-67
2021/11/08 09:28:05;;;;;;;5.13;1.47;;;;;;;-145.18;100.00;60484.78;5074729;28;20055;-67
2021/11/08 09:30:36;;;;;;;6.97;1.70;;;;;;;-145.18;100.00;60484.78;5069290;28;20024;-67
2021/11/08 09:33:02;;;;;;;7.73;1.70;;;;;;;-145.18;100.00;60484.78;5072068;28;20036;-67
2021/11/08 09:35:32;;;;;;;11.03;1.47;;;;;;;-145.18;100.00;60484.78;5069796;28;20503;-67
2021/11/08 09:38:01;;;;;;;6.80;2.33;;;;;;;-145.18;100.00;60484.78;5070331;28;20032;-67
2021/11/08 09:40:27;;;;;;;9.67;1.63;;;;;;;-145.18;100.00;60484.78;5080631;28;20119;-67
2021/11/08 09:42:55;;;;;;;15.23;1.97;;;;;;;-145.18;100.00;60484.78;5072714;28;20115;-67
2021/11/08 09:45:21;;;;;;;11.17;1.80;;;;;;;-145.18;100.00;60484.78;5071992;28;20217;-67
2021/11/08 09:47:47;;;;;;;7.40;1.77;;;;;;;-145.18;100.00;60484.78;5069689;28;20036;-67
2021/11/08 09:50:16;;;;;;;7.87;1.60;;;;;;;-145.18;100.00;60484.78;5073956;28;20403;-67
2021/11/08 09:52:44;;;;;;;12.43;2.13;;;;;;;-145.18;100.00;60484.78;5067949;28;20028;-68
2021/11/08 09:55:13;;;;;;;9.07;1.90;;;;;;;-145.18;100.00;60484.78;5077195;28;20031;-68
2021/11/08 09:57:40;;;;;;;16.53;2.13;;;;;;;-145.18;100.00;60484.78;5077040;28;20152;-68
2021/11/08 10:00:26;;;;;;;8.47;1.73;;;;;;;-145.18;100.00;60484.78;5077402;28;20642;-68
2021/11/08 10:03:01;;;;;;;11.63;1.70;;;;;;;-145.18;100.00;60484.78;5073617;28;20024;-69
2021/11/08 10:05:30;;;;;;;9.70;2.40;;;;;;;-145.18;100.00;60484.78;5073980;28;20469;-70
2021/11/08 10:07:57;;;;;;;8.17;1.90;;;;;;;-145.18;100.00;60484.78;5074097;28;20704;-69
2021/11/08 10:10:23;;;;;;;13.20;1.97;;;;;;;-145.18;100.00;60484.78;5071845;28;20055;-70
2021/11/08 10:12:54;;;;;;;14.47;2.07;;;;;;;-145.18;100.00;60484.78;5068149;28;20032;-71
2021/11/08 10:15:20;;;;;;;9.48;2.10;;;;;;;-145.18;100.00;60484.78;5060343;28;20491;-70
2021/11/08 10:17:46;;;;;;;9.53;2.17;;;;;;;-145.18;100.00;60484.78;5073180;28;20040;-70
2021/11/08 10:20:28;;;;;;;12.30;1.53;;;;;;;-145.18;100.00;60484.78;5075485;28;20035;-70
2021/11/08 10:22:54;;;;;;;6.25;1.52;;;;;;;-145.18;100.00;60484.78;5075856;28;20024;-71
2021/11/08 10:25:20;;;;;;;9.07;1.70;;;;;;;-145.18;100.00;60484.78;5075125;28;20349;-70
2021/11/08 10:27:46;;;;;;;9.80;1.67;;;;;;;-145.18;100.00;60484.78;5069933;28;20177;-71
2021/11/08 10:30:24;;;;;;;5.87;1.90;;;;;;;-145.18;100.00;60484.78;5074689;28;20376;-71
2021/11/08 10:33:08;;;;;;;10.23;2.30;;;;;;;-145.18;100.00;60484.78;5052389;28;20032;-70
2021/11/08 10:35:36;;;;;;;8.43;1.80;;;;;;;-145.18;100.00;60484.78;5075043;28;20086;-70
2021/11/08 10:38:12;;;;;;;8.37;1.47;;;;;;;-145.18;100.00;60484.78;5076529;28;20544;-71
2021/11/08 10:40:43;;;;;;;13.70;2.33;;;;;;;-145.18;100.00;60484.78;5075629;28;20286;-70
2021/11/08 10:43:10;;;;;;;11.87;1.77;;;;;;;-145.18;100.00;60484.78;5075083;28;20051;-71
2021/11/08 10:45:58;;;;;;;11.80;1.80;;;;;;;-145.18;100.00;60484.78;5074119;28;20028;-71
2021/11/08 10:48:28;;;;;;;9.60;1.77;;;;;;;-145.18;100.00;60484.78;5071262;28;20557;-71
2021/11/08 10:50:55;;;;;;;10.30;2.10;;;;;;;-145.18;100.00;60484.78;5070193;28;20028;-70
2021/11/08 10:53:21;;;;;;;17.80;2.07;;;;;;;-145.18;100.00;60484.78;5074277;28;20036;-70
2021/11/08 10:55:51;;;;;;;15.67;1.40;;;;;;;-145.18;100.00;60484.78;5074935;28;20423;-71
2021/11/08 10:58:20;;;;;;;10.53;1.67;;;;;;;-145.18;100.00;60484.78;5074530;28;20023;-70
2021/11/08 11:00:52;;;;;;;11.00;1.43;;;;;;;-145.18;100.00;60484.78;5075390;28;20034;-71
2021/11/08 11:03:20;;;;;;;9.83;1.67;;;;;;;-145.18;100.00;60484.78;5074115;28;20035;-70
2021/11/08 11:05:46;;;;;;;6.33;1.97;;;;;;;-145.18;100.00;60484.78;5062993;28;20086;-71
2021/11/08 11:08:15;;;;;;;7.20;1.50;;;;;;;-145.18;100.00;60484.78;5071332;28;20451;-71
2021/11/08 11:11:02;;;;;;;9.03;2.50;;;;;;;-145.18;100.00;60484.78;5074046;28;20103;-70
2021/11/08 11:13:30;;;;;;;11.27;1.80;;;;;;;-145.18;100.00;60484.78;5063964;28;20423;-70
2021/11/08 11:16:02;;;;;;;8.80;2.03;;;;;;;-145.18;100.00;60484.78;5072962;28;20449;-70
2021/11/08 11:18:33;;;;;;;6.57;1.35;;;;;;;-145.18;100.00;60484.78;5069867;28;20024;-69
2021/11/08 11:21:20;;;;;;;5.13;1.17;;;;;;;-145.18;100.00;60484.78;5071601;28;20256;-69
2021/11/08 11:23:50;;;;;;;7.73;1.40;;;;;;;-145.18;100.00;60484.78;5056136;28;20405;-70
2021/11/08 11:26:20;;;;;;;9.27;1.53;;;;;;;-145.18;100.00;60484.78;5071258;28;20407;-70
2021/11/08 11:28:48;;;;;;;9.90;1.70;;;;;;;-145.18;100.00;60484.78;5073596;28;20035;-70
2021/11/08 11:31:19;;;;;;;8.73;1.47;;;;;;;-145.18;100.00;60484.78;5069302;28;20028;-69
2021/11/08 11:33:45;;;;;;;9.93;1.50;;;;;;;-145.18;100.00;60484.78;5075891;28;20035;-69
2021/11/08 11:36:17;;;;;;;10.03;1.63;;;;;;;-145.18;100.00;60484.78;5079124;28;20032;-70
2021/11/08 11:38:57;;;;;;;11.38;1.90;;;;;;;-145.18;100.00;60484.78;5077378;28;20273;-69
2021/11/08 11:41:24;;;;;;;4.37;1.30;;;;;;;-145.18;100.00;60484.78;5067063;28;20032;-69
2021/11/08 11:43:55;;;;;;;10.97;2.57;;;;;;;-145.18;100.00;60484.78;5077425;28;20086;-69
2021/11/08 11:46:27;;;;;;;5.90;1.40;;;;;;;-145.18;100.00;60484.78;5077371;28;20030;-69
2021/11/08 11:48:53;;;;;;;12.48;1.83;;;;;;;-145.18;100.00;60484.78;5078155;28;20094;-69
2021/11/08 11:51:21;;;;;;;11.17;2.13;;;;;;;-145.18;100.00;60484.78;5069188;28;20443;-69
2021/11/08 11:53:47;;;;;;;7.63;1.10;;;;;;;-145.18;100.00;60484.78;5075262;28;20088;-69
2021/11/08 11:56:15;;;;;;;5.90;1.30;;;;;;;-145.18;100.00;60484.78;5068532;28;20119;-70
2021/11/08 11:58:43;;;;;;;8.53;1.67;;;;;;;-145.18;100.00;60484.78;5078682;28;20039;-70
2021/11/08 12:01:12;;;;;;;7.17;2.33;;;;;;;-145.18;100.00;60484.78;5072590;28;20029;-70
2021/11/08 12:03:38;;;;;;;5.43;1.20;;;;;;;-145.18;100.00;60484.78;5064631;28;20274;-69
2021/11/08 12:06:05;;;;;;;8.33;1.30;;;;;;;-145.18;100.00;60484.78;5074845;28;20175;-70
2021/11/08 12:08:34;;;;;;;6.47;1.30;;;;;;;-145.18;100.00;60484.78;5070513;28;20058;-70
2021/11/08 12:11:01;;;;;;;4.63;0.90;;;;;;;-145.18;100.00;60484.78;5068014;28;20055;-70
2021/11/08 12:13:29;;;;;;;6.40;1.23;;;;;;;-145.18;100.00;60484.78;5074139;28;20032;-70
2021/11/08 12:15:55;;;;;;;5.57;1.10;;;;;;;-145.18;100.00;60484.78;5075628;28;20547;-70
2021/11/08 12:18:22;;;;;;;4.80;1.00;;;;;;;-145.18;100.00;60484.78;5076645;28;20035;-70
2021/11/08 12:20:51;;;;;;;6.03;1.23;;;;;;;-145.18;100.00;60484.78;5077891;28;20042;-70
2021/11/08 12:23:21;;;;;;;5.87;1.20;;;;;;;-145.18;100.00;60484.78;5077947;28;20645;-70
2021/11/08 12:25:47;;;;;;;8.30;1.50;;;;;;;-145.18;100.00;60484.78;5077784;28;20028;-70
2021/11/08 12:28:23;;;;;;;5.10;1.57;;;;;;;-145.18;100.00;60484.78;5078476;28;20089;-70
2021/11/08 12:30:52;;;;;;;8.60;1.77;;;;;;;-145.18;100.00;60484.78;5066623;28;20032;-70
2021/11/08 12:33:28;;;;;;;9.03;1.63;;;;;;;-145.18;100.00;60484.78;5073269;28;20613;-70
2021/11/08 12:36:05;;;;;;;5.53;1.10;;;;;;;-145.18;100.00;60484.78;5075702;28;20032;-70
2021/11/08 12:38:34;;;;;;;3.13;0.90;;;;;;;-145.18;100.00;60484.78;5077647;28;20251;-70
2021/11/08 12:41:27;;;;;;;5.40;1.17;;;;;;;-145.18;100.00;60484.78;5073929;28;20188;-70
2021/11/08 12:43:57;;;;;;;5.75;1.50;;;;;;;-145.18;100.00;60484.78;5075175;28;20029;-70
2021/11/08 12:46:26;;;;;;;6.77;1.67;;;;;;;-145.18;100.00;60484.78;5071159;28;20036;-70
2021/11/08 12:49:03;;;;;;;5.97;1.63;;;;;;;-145.18;100.00;60484.78;5076569;28;20093;-70
2021/11/08 12:51:29;;;;;;;5.07;1.30;;;;;;;-145.18;100.00;60484.78;5075186;28;20024;-70
2021/11/08 12:54:08;;;;;;;7.77;1.73;;;;;;;-145.18;100.00;60484.78;5076455;28;20020;-70
2021/11/08 12:56:41;;;;;;;7.63;1.40;;;;;;;-145.18;100.00;60484.78;5069772;28;20089;-70